createdAt,value
2019-01-10T00:00:37.652Z,9.47
2019-01-10T00:04:50.269Z,8.83
2019-01-10T00:09:02.784Z,7.63
2019-01-10T00:13:15.736Z,10.00
2019-01-10T00:17:28.072Z,7.23
2019-01-10T00:21:41.514Z,6.77
2019-01-10T00:25:53.969Z,8.50
2019-01-10T00:30:08.925Z,6.90
2019-01-10T00:34:22.236Z,7.40
2019-01-10T00:38:35.195Z,9.30
2019-01-10T00:42:49.624Z,12.47
2019-01-10T00:47:02.112Z,8.70
2019-01-10T00:51:14.421Z,10.53
2019-01-10T00:55:26.764Z,7.23
2019-01-10T00:59:39.353Z,7.90
2019-01-10T01:03:51.805Z,11.20
2019-01-10T01:08:04.118Z,11.57
2019-01-10T01:12:16.900Z,9.83
2019-01-10T01:16:29.954Z,6.80
2019-01-10T01:20:42.187Z,9.80
2019-01-10T01:24:54.740Z,6.93
2019-01-10T01:29:07.554Z,10.87
2019-01-10T01:33:19.840Z,6.30
2019-01-10T01:37:32.243Z,5.87
2019-01-10T01:41:45.278Z,6.27
2019-01-10T01:45:57.477Z,6.33
2019-01-10T01:50:12.007Z,7.30
2019-01-10T01:54:24.259Z,8.70
2019-01-10T01:58:36.953Z,6.70
2019-01-10T02:02:50.636Z,9.30
2019-01-10T02:07:02.958Z,7.43
2019-01-10T02:11:15.758Z,8.43
2019-01-10T02:15:29.453Z,8.63
2019-01-10T02:19:41.946Z,6.60
2019-01-10T02:23:54.313Z,5.50
2019-01-10T02:28:07.045Z,5.83
2019-01-10T02:32:19.430Z,10.23
2019-01-10T02:36:31.796Z,6.40
2019-01-10T02:40:44.489Z,9.30
2019-01-10T02:44:56.825Z,7.57
2019-01-10T02:49:09.635Z,7.77
2019-01-10T02:53:22.086Z,8.13
2019-01-10T02:57:34.398Z,6.03
2019-01-10T03:01:46.991Z,9.20
2019-01-10T03:05:59.437Z,8.33
2019-01-10T03:10:13.229Z,7.73
2019-01-10T03:14:25.965Z,8.57
2019-01-10T03:18:38.489Z,7.77
2019-01-10T03:22:51.309Z,7.73
2019-01-10T03:27:03.937Z,8.40
2019-01-10T03:31:16.913Z,7.77
2019-01-10T03:35:29.420Z,6.57
2019-01-10T03:39:42.408Z,7.83
2019-01-10T03:43:54.871Z,6.77
2019-01-10T03:48:07.452Z,8.27
2019-01-10T03:52:20.061Z,6.57
2019-01-10T03:56:32.393Z,7.33
2019-01-10T04:00:45.098Z,7.93
2019-01-10T04:04:57.662Z,9.10
2019-01-10T04:09:10.579Z,7.03
2019-01-10T04:13:23.106Z,8.47
2019-01-10T04:17:35.390Z,7.77
2019-01-10T04:21:48.067Z,9.40
2019-01-10T04:26:00.626Z,8.10
2019-01-10T04:30:21.351Z,7.40
2019-01-10T04:34:33.684Z,5.93
2019-01-10T04:38:46.572Z,5.90
2019-01-10T04:42:59.182Z,8.10
2019-01-10T04:47:12.016Z,10.37
2019-01-10T04:51:24.440Z,8.97
2019-01-10T04:55:36.765Z,7.90
2019-01-10T04:59:49.362Z,8.10
2019-01-10T05:04:01.702Z,8.70
2019-01-10T05:08:13.921Z,6.50
2019-01-10T05:12:26.620Z,9.37
2019-01-10T05:16:38.961Z,8.67
2019-01-10T05:20:52.404Z,7.47
2019-01-10T05:25:04.965Z,7.53
2019-01-10T05:29:17.660Z,9.60
2019-01-10T05:33:30.161Z,10.37
2019-01-10T05:37:43.501Z,8.33
2019-01-10T05:41:56.390Z,8.63
2019-01-10T05:46:08.835Z,10.27
2019-01-10T05:50:22.275Z,9.70
2019-01-10T05:54:34.669Z,7.13
2019-01-10T05:58:47.276Z,9.83
2019-01-10T06:03:00.104Z,35.37
2019-01-10T06:07:12.825Z,8.17
2019-01-10T06:11:26.471Z,8.87
2019-01-10T06:15:38.829Z,8.57
2019-01-10T06:19:52.261Z,7.90
2019-01-10T06:24:04.454Z,8.67
2019-01-10T06:28:17.221Z,8.03
2019-01-10T06:32:29.673Z,11.57
2019-01-10T06:36:42.680Z,9.60
2019-01-10T06:40:55.188Z,8.50
2019-01-10T06:45:09.099Z,8.03
2019-01-10T06:49:21.690Z,8.43
2019-01-10T06:53:34.422Z,11.50
2019-01-10T06:57:47.371Z,9.87
2019-01-10T07:01:59.870Z,11.33
2019-01-10T07:06:12.675Z,8.73
2019-01-10T07:10:28.804Z,9.70
2019-01-10T07:14:41.097Z,9.73
2019-01-10T07:18:53.780Z,9.57
2019-01-10T07:23:06.448Z,7.97
2019-01-10T07:27:18.965Z,8.93
2019-01-10T07:31:31.939Z,12.97
2019-01-10T07:35:44.653Z,11.27
2019-01-10T07:39:57.543Z,9.53
2019-01-10T07:44:10.178Z,10.90
2019-01-10T07:48:22.994Z,10.30
2019-01-10T07:52:35.957Z,8.73
2019-01-10T07:56:48.550Z,12.40
2019-01-10T08:01:01.008Z,11.93
2019-01-10T08:05:13.764Z,13.20
2019-01-10T08:09:26.245Z,13.00
2019-01-10T08:13:39.116Z,11.10
2019-01-10T08:17:51.682Z,10.30
2019-01-10T08:22:04.466Z,10.30
2019-01-10T08:26:17.125Z,14.50
2019-01-10T08:30:29.719Z,11.07
2019-01-10T08:34:42.450Z,10.07
2019-01-10T08:38:54.770Z,8.00
2019-01-10T08:43:07.559Z,10.23
2019-01-10T08:47:19.914Z,11.30
2019-01-10T08:51:31.894Z,12.00
2019-01-10T08:55:44.504Z,9.93
2019-01-10T08:59:58.254Z,12.53
2019-01-10T09:04:10.880Z,21.73
2019-01-10T09:08:23.113Z,16.70
2019-01-10T09:12:35.705Z,9.50
2019-01-10T09:16:48.154Z,17.67
2019-01-10T09:21:04.523Z,18.50
2019-01-10T09:25:15.137Z,17.67
2019-01-10T09:29:28.640Z,12.33
2019-01-10T09:33:41.788Z,13.23
2019-01-10T09:37:54.166Z,11.33
2019-01-10T09:42:07.148Z,12.27
2019-01-10T09:46:19.524Z,10.70
2019-01-10T09:50:33.372Z,11.47
2019-01-10T09:54:46.476Z,9.80
2019-01-10T09:58:58.773Z,10.57
2019-01-10T10:03:11.654Z,14.47
2019-01-10T10:07:23.994Z,12.10
2019-01-10T10:11:36.697Z,11.43
2019-01-10T10:15:52.630Z,14.40
2019-01-10T10:20:03.678Z,10.87
2019-01-10T10:24:16.147Z,10.90
2019-01-10T10:28:28.638Z,11.47
2019-01-10T10:32:41.630Z,11.93
2019-01-10T10:36:54.034Z,11.23
2019-01-10T10:41:06.668Z,11.97
2019-01-10T10:45:20.043Z,12.73
2019-01-10T10:49:33.651Z,12.07
2019-01-10T10:53:45.996Z,8.80
2019-01-10T10:57:59.457Z,11.10
2019-01-10T11:02:11.840Z,9.73
2019-01-10T11:06:24.595Z,10.73
2019-01-10T11:10:36.997Z,11.97
2019-01-10T11:14:49.429Z,10.77
2019-01-10T11:19:02.046Z,7.20
2019-01-10T11:23:14.398Z,9.00
2019-01-10T11:27:27.397Z,13.07
2019-01-10T11:31:41.093Z,8.57
2019-01-10T11:35:53.659Z,12.23
2019-01-10T11:40:08.001Z,8.77
2019-01-10T11:44:20.535Z,10.07
2019-01-10T11:48:32.923Z,10.33
2019-01-10T11:52:46.049Z,11.63
2019-01-10T11:56:58.847Z,8.73
2019-01-10T12:01:13.207Z,6.70
2019-01-10T12:05:26.053Z,7.43
2019-01-10T12:09:38.757Z,9.37
2019-01-10T12:13:54.927Z,5.53
2019-01-10T12:18:11.265Z,9.70
2019-01-10T12:22:24.009Z,11.53
2019-01-10T12:26:36.804Z,11.13
2019-01-10T12:30:49.309Z,9.23
2019-01-10T12:35:01.816Z,11.30
2019-01-10T12:39:14.597Z,10.90
2019-01-10T12:43:27.085Z,9.57
2019-01-10T12:47:39.879Z,9.37
2019-01-10T12:51:53.516Z,7.00
2019-01-10T12:56:05.981Z,11.67
2019-01-10T13:00:20.347Z,7.77
2019-01-10T13:04:34.029Z,9.60
2019-01-10T13:08:46.741Z,6.80
2019-01-10T13:12:59.645Z,9.13
2019-01-10T13:17:13.612Z,6.97
2019-01-10T13:21:28.529Z,7.13
2019-01-10T13:25:41.049Z,10.17
2019-01-10T13:29:54.061Z,5.97
2019-01-10T13:34:07.080Z,7.90
2019-01-10T13:38:19.691Z,7.73
2019-01-10T13:42:32.210Z,6.07
2019-01-10T13:46:45.203Z,8.10
2019-01-10T13:50:59.054Z,6.00
2019-01-10T13:55:12.769Z,6.63
2019-01-10T13:59:25.504Z,6.17
2019-01-10T14:03:39.119Z,5.47
2019-01-10T14:07:51.640Z,4.10
2019-01-10T14:12:04.463Z,4.33
2019-01-10T14:16:16.866Z,5.13
2019-01-10T14:20:29.712Z,6.97
2019-01-10T14:24:41.964Z,7.33
2019-01-10T14:28:54.367Z,5.00
2019-01-10T14:33:07.852Z,5.63
2019-01-10T14:37:20.768Z,6.50
2019-01-10T14:41:34.448Z,5.27
2019-01-10T14:45:46.995Z,6.97
2019-01-10T14:49:59.717Z,7.70
2019-01-10T14:54:12.175Z,3.80
2019-01-10T14:58:25.316Z,4.77
2019-01-10T15:02:37.717Z,4.33
2019-01-10T15:06:50.101Z,4.23
2019-01-10T15:11:02.860Z,7.97
2019-01-10T15:15:17.279Z,5.90
2019-01-10T15:19:31.100Z,6.33
2019-01-10T15:23:43.561Z,5.90
2019-01-10T15:27:55.968Z,4.63
2019-01-10T15:32:08.723Z,5.93
2019-01-10T15:36:21.396Z,4.60
2019-01-10T15:40:36.684Z,4.43
2019-01-10T15:44:49.442Z,6.03
2019-01-10T15:49:01.935Z,8.87
2019-01-10T15:53:14.864Z,9.97
2019-01-10T15:57:27.288Z,6.30
2019-01-10T16:01:40.173Z,8.23
2019-01-10T16:05:52.624Z,7.43
2019-01-10T16:10:05.913Z,7.93
2019-01-10T16:14:18.400Z,5.67
2019-01-10T16:18:31.167Z,12.20
2019-01-10T16:22:43.824Z,8.47
2019-01-10T16:26:56.633Z,9.13
2019-01-10T16:31:09.294Z,11.03
2019-01-10T16:35:22.335Z,7.63
2019-01-10T16:39:34.725Z,6.00
2019-01-10T16:43:47.613Z,8.50
2019-01-10T16:48:00.235Z,6.90
2019-01-10T16:52:13.153Z,7.07
2019-01-10T16:56:25.722Z,10.73
2019-01-10T17:00:38.601Z,9.53
2019-01-10T17:04:52.339Z,11.87
2019-01-10T17:09:06.520Z,19.47
2019-01-10T17:13:19.340Z,17.47
2019-01-10T17:17:37.536Z,13.47
2019-01-10T17:21:46.203Z,16.80
2019-01-10T17:25:58.869Z,13.17
2019-01-10T17:30:14.825Z,12.90
2019-01-10T17:34:27.460Z,12.77
2019-01-10T17:38:40.061Z,26.87
2019-01-10T17:42:53.136Z,49.10
2019-01-10T17:47:06.156Z,51.50
2019-01-10T17:51:18.635Z,37.20
2019-01-10T17:55:31.467Z,25.80
2019-01-10T17:59:43.953Z,23.37
2019-01-10T18:03:56.813Z,19.73
2019-01-10T18:08:09.282Z,14.70
2019-01-10T18:12:22.257Z,17.00
2019-01-10T18:16:34.850Z,13.77
2019-01-10T18:20:47.896Z,15.87
2019-01-10T18:25:00.262Z,14.83
2019-01-10T18:29:13.052Z,14.07
2019-01-10T18:33:25.775Z,11.30
2019-01-10T18:37:38.761Z,11.93
2019-01-10T18:41:52.230Z,14.27
2019-01-10T18:46:04.727Z,13.40
2019-01-10T18:50:21.845Z,14.33
2019-01-10T18:54:34.753Z,12.43
2019-01-10T18:58:47.638Z,11.07
2019-01-10T19:03:00.687Z,9.30
2019-01-10T19:07:13.437Z,10.70
2019-01-10T19:11:25.828Z,13.83
2019-01-10T19:15:38.737Z,10.90
2019-01-10T19:19:51.421Z,13.47
2019-01-10T19:24:04.371Z,9.67
2019-01-10T19:28:16.793Z,10.50
2019-01-10T19:32:31.513Z,12.53
2019-01-10T19:36:44.494Z,11.30
2019-01-10T19:40:57.048Z,14.67
2019-01-10T19:45:10.536Z,12.60
2019-01-10T19:49:23.489Z,14.13
2019-01-10T19:53:36.036Z,17.17
2019-01-10T19:57:48.529Z,14.67
2019-01-10T20:02:01.290Z,12.80
2019-01-10T20:06:13.691Z,12.53
2019-01-10T20:10:26.528Z,13.10
2019-01-10T20:14:39.040Z,12.57
2019-01-10T20:18:51.438Z,11.13
2019-01-10T20:23:04.927Z,15.63
2019-01-10T20:27:17.961Z,16.23
2019-01-10T20:31:30.761Z,13.67
2019-01-10T20:35:43.269Z,15.50
2019-01-10T20:39:56.769Z,14.67
2019-01-10T20:44:08.966Z,16.30
2019-01-10T20:48:22.534Z,13.20
2019-01-10T20:52:35.550Z,17.33
2019-01-10T20:56:47.941Z,16.43
2019-01-10T21:01:02.194Z,18.37
2019-01-10T21:05:14.558Z,18.27
2019-01-10T21:09:28.611Z,18.97
2019-01-10T21:13:41.369Z,21.03
2019-01-10T21:17:53.829Z,16.07
2019-01-10T21:22:07.257Z,21.50
2019-01-10T21:26:19.573Z,16.33
2019-01-10T21:30:33.012Z,15.73
2019-01-10T21:34:46.468Z,14.33
2019-01-10T21:38:59.396Z,15.90
2019-01-10T21:43:12.973Z,14.37
2019-01-10T21:47:25.335Z,16.53
2019-01-10T21:51:37.745Z,15.70
2019-01-10T21:55:51.121Z,12.80
2019-01-10T22:00:04.375Z,16.20
2019-01-10T22:04:17.272Z,16.40
2019-01-10T22:08:29.669Z,19.20
2019-01-10T22:12:42.033Z,16.80
2019-01-10T22:16:54.897Z,13.73
2019-01-10T22:21:07.328Z,16.60
2019-01-10T22:25:20.895Z,17.17
2019-01-10T22:29:33.847Z,17.23
2019-01-10T22:33:46.703Z,18.13
2019-01-10T22:37:59.576Z,15.73
2019-01-10T22:42:12.031Z,13.60
2019-01-10T22:46:24.870Z,14.47
2019-01-10T22:50:37.456Z,21.10
2019-01-10T22:54:50.323Z,16.53
2019-01-10T22:59:02.800Z,17.10
2019-01-10T23:03:15.767Z,12.00
2019-01-10T23:07:29.443Z,13.70
2019-01-10T23:11:46.227Z,16.97
2019-01-10T23:15:59.254Z,17.10
2019-01-10T23:20:16.297Z,16.97
2019-01-10T23:24:32.332Z,17.83
2019-01-10T23:28:44.932Z,15.57
2019-01-10T23:33:00.431Z,16.23
2019-01-10T23:37:14.903Z,16.10
2019-01-10T23:41:27.985Z,15.00
2019-01-10T23:45:40.424Z,15.77
2019-01-10T23:49:53.923Z,18.03
2019-01-10T23:54:06.292Z,14.87
2019-01-10T23:58:18.981Z,17.33
